sensor_id;sensor_type;location;lat;lon;timestamp;pressure;altitude;pressure_sealevel;temperature;humidity
28312;BME280;15572;48.810;9.148;2022-11-20T00:01:05;97649.06;;;4.76;100.00
28312;BME280;15572;48.810;9.148;2022-11-20T00:06:03;97650.41;;;4.72;100.00
28312;BME280;15572;48.810;9.148;2022-11-20T00:11:03;97649.06;;;4.76;100.00
28312;BME280;15572;48.810;9.148;2022-11-20T00:16:01;97647.53;;;4.82;100.00
28312;BME280;15572;48.810;9.148;2022-11-20T00:21:04;97648.88;;;4.86;100.00
28312;BME280;15572;48.810;9.148;2022-11-20T00:26:02;97646.00;;;4.87;100.00
28312;BME280;15572;48.810;9.148;2022-11-20T00:31:01;97652.19;;;4.88;100.00
28312;BME280;15572;48.810;9.148;2022-11-20T00:36:04;97636.09;;;4.96;100.00
28312;BME280;15572;48.810;9.148;2022-11-20T00:41:03;97635.25;;;4.95;100.00
28312;BME280;15572;48.810;9.148;2022-11-20T00:46:01;97639.31;;;4.91;100.00
28312;BME280;15572;48.810;9.148;2022-11-20T00:50:58;97639.94;;;4.93;100.00
28312;BME280;15572;48.810;9.148;2022-11-20T00:55:57;97644.81;;;4.90;100.00
28312;BME280;15572;48.810;9.148;2022-11-20T01:00:59;97651.03;;;4.90;100.00
28312;BME280;15572;48.810;9.148;2022-11-20T01:05:59;97638.94;;;4.94;100.00
28312;BME280;15572;48.810;9.148;2022-11-20T01:11:00;97640.56;;;5.03;100.00
28312;BME280;15572;48.810;9.148;2022-11-20T01:16:02;97642.94;;;4.98;100.00
28312;BME280;15572;48.810;9.148;2022-11-20T01:21:00;97647.81;;;4.95;100.00
28312;BME280;15572;48.810;9.148;2022-11-20T01:26:01;97659.56;;;4.94;100.00
28312;BME280;15572;48.810;9.148;2022-11-20T01:30:58;97655.19;;;4.93;100.00
28312;BME280;15572;48.810;9.148;2022-11-20T01:36:03;97659.56;;;4.94;100.00
28312;BME280;15572;48.810;9.148;2022-11-20T01:41:02;97662.91;;;4.96;100.00
28312;BME280;15572;48.810;9.148;2022-11-20T01:46:02;97662.72;;;4.97;100.00
28312;BME280;15572;48.810;9.148;2022-11-20T01:50:59;97664.56;;;4.97;100.00
28312;BME280;15572;48.810;9.148;2022-11-20T01:55:59;97666.22;;;5.06;100.00
28312;BME280;15572;48.810;9.148;2022-11-20T02:00:58;97662.69;;;5.05;100.00
28312;BME280;15572;48.810;9.148;2022-11-20T02:05:58;97657.88;;;5.01;100.00
28312;BME280;15572;48.810;9.148;2022-11-20T02:10:58;97660.72;;;4.99;100.00
28312;BME280;15572;48.810;9.148;2022-11-20T02:15:54;97669.25;;;5.03;100.00
28312;BME280;15572;48.810;9.148;2022-11-20T02:20:55;97661.53;;;5.00;100.00
28312;BME280;15572;48.810;9.148;2022-11-20T02:25:56;97665.91;;;5.01;100.00
28312;BME280;15572;48.810;9.148;2022-11-20T02:30:54;97660.84;;;5.06;100.00
28312;BME280;15572;48.810;9.148;2022-11-20T02:35:51;97665.84;;;5.09;100.00
28312;BME280;15572;48.810;9.148;2022-11-20T02:40:47;97661.16;;;5.11;100.00
28312;BME280;15572;48.810;9.148;2022-11-20T02:45:45;97659.72;;;5.00;100.00
28312;BME280;15572;48.810;9.148;2022-11-20T02:50:41;97655.34;;;4.99;100.00
28312;BME280;15572;48.810;9.148;2022-11-20T02:55:38;97658.03;;;4.99;100.00
28312;BME280;15572;48.810;9.148;2022-11-20T03:00:34;97662.03;;;5.03;100.00
28312;BME280;15572;48.810;9.148;2022-11-20T03:05:32;97656.81;;;5.10;100.00
28312;BME280;15572;48.810;9.148;2022-11-20T03:10:29;97662.34;;;5.08;100.00
28312;BME280;15572;48.810;9.148;2022-11-20T03:15:25;97652.59;;;5.07;100.00
28312;BME280;15572;48.810;9.148;2022-11-20T03:20:22;97649.28;;;5.05;100.00
28312;BME280;15572;48.810;9.148;2022-11-20T03:25:20;97646.13;;;5.02;100.00
28312;BME280;15572;48.810;9.148;2022-11-20T03:30:17;97641.63;;;4.94;100.00
28312;BME280;15572;48.810;9.148;2022-11-20T03:35:14;97643.00;;;4.90;100.00
28312;BME280;15572;48.810;9.148;2022-11-20T03:40:10;97652.38;;;4.86;100.00
28312;BME280;15572;48.810;9.148;2022-11-20T03:45:09;97639.84;;;4.79;100.00
28312;BME280;15572;48.810;9.148;2022-11-20T03:50:06;97631.47;;;4.74;100.00
28312;BME280;15572;48.810;9.148;2022-11-20T03:55:04;97636.69;;;4.67;100.00
28312;BME280;15572;48.810;9.148;2022-11-20T04:00:00;97634.38;;;4.64;100.00
28312;BME280;15572;48.810;9.148;2022-11-20T04:04:58;97638.06;;;4.55;100.00
28312;BME280;15572;48.810;9.148;2022-11-20T04:09:55;97630.72;;;4.49;100.00
28312;BME280;15572;48.810;9.148;2022-11-20T04:14:51;97632.38;;;4.50;100.00
28312;BME280;15572;48.810;9.148;2022-11-20T04:19:47;97628.69;;;4.51;100.00
28312;BME280;15572;48.810;9.148;2022-11-20T04:24:45;97626.88;;;4.51;100.00
28312;BME280;15572;48.810;9.148;2022-11-20T04:29:42;97633.75;;;4.54;100.00
28312;BME280;15572;48.810;9.148;2022-11-20T04:34:38;97633.75;;;4.54;100.00
28312;BME280;15572;48.810;9.148;2022-11-20T04:39:35;97632.91;;;4.53;100.00
28312;BME280;15572;48.810;9.148;2022-11-20T04:44:33;97629.19;;;4.54;100.00
28312;BME280;15572;48.810;9.148;2022-11-20T04:49:29;97624.66;;;4.55;100.00
28312;BME280;15572;48.810;9.148;2022-11-20T04:54:27;97626.34;;;4.56;100.00
28312;BME280;15572;48.810;9.148;2022-11-20T04:59:25;97632.03;;;4.61;100.00
28312;BME280;15572;48.810;9.148;2022-11-20T05:04:23;97632.00;;;4.69;100.00
28312;BME280;15572;48.810;9.148;2022-11-20T05:09:20;97621.22;;;4.77;100.00
28312;BME280;15572;48.810;9.148;2022-11-20T05:14:16;97622.06;;;4.86;100.00
28312;BME280;15572;48.810;9.148;2022-11-20T05:19:13;97616.16;;;4.90;100.00
28312;BME280;15572;48.810;9.148;2022-11-20T05:24:11;97618.47;;;4.93;100.00
28312;BME280;15572;48.810;9.148;2022-11-20T05:29:10;97625.38;;;4.96;100.00
28312;BME280;15572;48.810;9.148;2022-11-20T05:34:07;97624.66;;;5.02;100.00
28312;BME280;15572;48.810;9.148;2022-11-20T05:39:03;97623.78;;;5.09;100.00
28312;BME280;15572;48.810;9.148;2022-11-20T05:44:01;97622.41;;;5.14;100.00
28312;BME280;15572;48.810;9.148;2022-11-20T05:48:58;97622.00;;;5.25;100.00
28312;BME280;15572;48.810;9.148;2022-11-20T05:53:56;97617.97;;;5.29;100.00
28312;BME280;15572;48.810;9.148;2022-11-20T05:58:53;97620.97;;;5.34;100.00
28312;BME280;15572;48.810;9.148;2022-11-20T06:03:52;97626.63;;;5.39;100.00
28312;BME280;15572;48.810;9.148;2022-11-20T06:08:49;97630.31;;;5.38;100.00
28312;BME280;15572;48.810;9.148;2022-11-20T06:13:46;97630.97;;;5.40;100.00
28312;BME280;15572;48.810;9.148;2022-11-20T06:18:42;97619.88;;;5.43;100.00
28312;BME280;15572;48.810;9.148;2022-11-20T06:23:41;97611.16;;;5.41;100.00
28312;BME280;15572;48.810;9.148;2022-11-20T06:28:37;97621.38;;;5.45;100.00
28312;BME280;15572;48.810;9.148;2022-11-20T06:33:34;97609.06;;;5.51;100.00
28312;BME280;15572;48.810;9.148;2022-11-20T06:38:31;97609.75;;;5.53;100.00
28312;BME280;15572;48.810;9.148;2022-11-20T06:43:29;97610.91;;;5.50;100.00
28312;BME280;15572;48.810;9.148;2022-11-20T06:48:27;97621.66;;;5.50;100.00
28312;BME280;15572;48.810;9.148;2022-11-20T06:53:24;97621.66;;;5.50;100.00
28312;BME280;15572;48.810;9.148;2022-11-20T06:58:20;97618.22;;;5.65;100.00
28312;BME280;15572;48.810;9.148;2022-11-20T07:03:18;97618.34;;;5.71;100.00
28312;BME280;15572;48.810;9.148;2022-11-20T07:08:15;97630.16;;;5.85;100.00
28312;BME280;15572;48.810;9.148;2022-11-20T07:13:12;97621.56;;;5.89;100.00
28312;BME280;15572;48.810;9.148;2022-11-20T07:18:08;97623.38;;;5.97;100.00
28312;BME280;15572;48.810;9.148;2022-11-20T07:23:06;97626.50;;;6.01;100.00
28312;BME280;15572;48.810;9.148;2022-11-20T07:28:03;97633.28;;;5.97;100.00
28312;BME280;15572;48.810;9.148;2022-11-20T07:32:59;97630.75;;;5.95;100.00
28312;BME280;15572;48.810;9.148;2022-11-20T07:37:56;97637.72;;;6.04;100.00
28312;BME280;15572;48.810;9.148;2022-11-20T07:42:55;97643.88;;;6.13;100.00
28312;BME280;15572;48.810;9.148;2022-11-20T07:47:51;97642.13;;;6.20;100.00
28312;BME280;15572;48.810;9.148;2022-11-20T07:52:48;97644.53;;;6.15;100.00
28312;BME280;15572;48.810;9.148;2022-11-20T07:57:44;97644.63;;;6.21;100.00
28312;BME280;15572;48.810;9.148;2022-11-20T08:02:43;97652.06;;;6.19;100.00
28312;BME280;15572;48.810;9.148;2022-11-20T08:07:40;97659.31;;;6.33;100.00
28312;BME280;15572;48.810;9.148;2022-11-20T08:12:43;97664.31;;;6.37;100.00
28312;BME280;15572;48.810;9.148;2022-11-20T08:18:04;97653.31;;;6.46;100.00
28312;BME280;15572;48.810;9.148;2022-11-20T08:23:02;97667.50;;;6.55;100.00
28312;BME280;15572;48.810;9.148;2022-11-20T08:28:02;97668.16;;;6.57;100.00
28312;BME280;15572;48.810;9.148;2022-11-20T08:33:01;97662.50;;;6.66;100.00
28312;BME280;15572;48.810;9.148;2022-11-20T08:37:59;97665.75;;;6.76;100.00
28312;BME280;15572;48.810;9.148;2022-11-20T08:42:55;97674.84;;;6.90;100.00
28312;BME280;15572;48.810;9.148;2022-11-20T08:47:52;97660.56;;;7.04;100.00
28312;BME280;15572;48.810;9.148;2022-11-20T08:52:48;97679.94;;;7.14;100.00
28312;BME280;15572;48.810;9.148;2022-11-20T08:57:46;97669.06;;;7.23;100.00
28312;BME280;15572;48.810;9.148;2022-11-20T09:02:43;97681.69;;;7.22;100.00
28312;BME280;15572;48.810;9.148;2022-11-20T09:07:39;97687.59;;;7.32;100.00
28312;BME280;15572;48.810;9.148;2022-11-20T09:12:37;97683.41;;;7.44;100.00
28312;BME280;15572;48.810;9.148;2022-11-20T09:17:35;97689.75;;;7.37;100.00
28312;BME280;15572;48.810;9.148;2022-11-20T09:22:31;97694.31;;;7.36;100.00
28312;BME280;15572;48.810;9.148;2022-11-20T09:27:28;97694.94;;;7.38;100.00
28312;BME280;15572;48.810;9.148;2022-11-20T09:32:24;97701.47;;;7.29;100.00
28312;BME280;15572;48.810;9.148;2022-11-20T09:37:22;97703.41;;;7.35;100.00
28312;BME280;15572;48.810;9.148;2022-11-20T09:42:35;97718.00;;;7.26;100.00
28312;BME280;15572;48.810;9.148;2022-11-20T09:47:43;97705.34;;;7.27;100.00
28312;BME280;15572;48.810;9.148;2022-11-20T09:52:49;97716.22;;;7.18;100.00
28312;BME280;15572;48.810;9.148;2022-11-20T09:57:52;97719.03;;;7.10;100.00
28312;BME280;15572;48.810;9.148;2022-11-20T10:02:52;97718.09;;;7.03;100.00
28312;BME280;15572;48.810;9.148;2022-11-20T10:07:55;97715.97;;;7.13;100.00
28312;BME280;15572;48.810;9.148;2022-11-20T10:13:06;97716.59;;;7.01;100.00
28312;BME280;15572;48.810;9.148;2022-11-20T10:18:20;97719.94;;;7.03;100.00
28312;BME280;15572;48.810;9.148;2022-11-20T10:23:35;97726.44;;;6.94;100.00
28312;BME280;15572;48.810;9.148;2022-11-20T10:28:48;97738.03;;;6.80;100.00
28312;BME280;15572;48.810;9.148;2022-11-20T10:33:51;97738.88;;;6.43;100.00
28312;BME280;15572;48.810;9.148;2022-11-20T10:38:55;97737.09;;;6.35;100.00
28312;BME280;15572;48.810;9.148;2022-11-20T10:43:59;97735.84;;;6.23;100.00
28312;BME280;15572;48.810;9.148;2022-11-20T10:48:57;97728.22;;;6.12;100.00
28312;BME280;15572;48.810;9.148;2022-11-20T10:54:13;97731.59;;;6.06;100.00
28312;BME280;15572;48.810;9.148;2022-11-20T10:59:32;97715.16;;;6.09;100.00
28312;BME280;15572;48.810;9.148;2022-11-20T11:04:35;97719.44;;;6.18;100.00
28312;BME280;15572;48.810;9.148;2022-11-20T11:09:38;97721.09;;;6.19;100.00
28312;BME280;15572;48.810;9.148;2022-11-20T11:14:43;97719.72;;;6.23;100.00
28312;BME280;15572;48.810;9.148;2022-11-20T11:19:40;97702.03;;;6.28;100.00
28312;BME280;15572;48.810;9.148;2022-11-20T11:24:38;97685.38;;;6.48;100.00
28312;BME280;15572;48.810;9.148;2022-11-20T11:29:34;97683.66;;;6.69;100.00
28312;BME280;15572;48.810;9.148;2022-11-20T11:34:31;97666.50;;;6.70;100.00
28312;BME280;15572;48.810;9.148;2022-11-20T11:39:29;97669.56;;;6.82;100.00
28312;BME280;15572;48.810;9.148;2022-11-20T11:44:30;97653.22;;;6.98;100.00
28312;BME280;15572;48.810;9.148;2022-11-20T11:49:44;97644.81;;;7.23;100.00
28312;BME280;15572;48.810;9.148;2022-11-20T11:54:45;97646.09;;;7.41;100.00
28312;BME280;15572;48.810;9.148;2022-11-20T11:59:52;97634.38;;;7.49;100.00
28312;BME280;15572;48.810;9.148;2022-11-20T12:04:54;97633.88;;;7.81;100.00
28312;BME280;15572;48.810;9.148;2022-11-20T12:09:54;97627.13;;;7.92;100.00
28312;BME280;15572;48.810;9.148;2022-11-20T12:14:56;97630.34;;;8.02;100.00
28312;BME280;15572;48.810;9.148;2022-11-20T12:19:53;97633.94;;;8.09;100.00
28312;BME280;15572;48.810;9.148;2022-11-20T12:24:55;97627.97;;;7.92;100.00
28312;BME280;15572;48.810;9.148;2022-11-20T12:30:01;97623.31;;;8.01;100.00
28312;BME280;15572;48.810;9.148;2022-11-20T12:35:04;97619.13;;;7.98;100.00
28312;BME280;15572;48.810;9.148;2022-11-20T12:40:24;97618.66;;;8.16;100.00
28312;BME280;15572;48.810;9.148;2022-11-20T12:45:42;97613.69;;;8.41;99.40
28312;BME280;15572;48.810;9.148;2022-11-20T12:50:51;97619.44;;;8.66;96.12
28312;BME280;15572;48.810;9.148;2022-11-20T12:55:56;97612.59;;;9.04;87.69
28312;BME280;15572;48.810;9.148;2022-11-20T13:01:12;97610.13;;;9.09;87.51
28312;BME280;15572;48.810;9.148;2022-11-20T13:06:35;97613.00;;;9.01;84.09
28312;BME280;15572;48.810;9.148;2022-11-20T13:11:37;97618.63;;;9.06;80.47
28312;BME280;15572;48.810;9.148;2022-11-20T13:16:42;97612.78;;;8.96;77.83
28312;BME280;15572;48.810;9.148;2022-11-20T13:21:41;97612.47;;;8.78;79.83
28312;BME280;15572;48.810;9.148;2022-11-20T13:26:40;97607.25;;;8.76;79.31
28312;BME280;15572;48.810;9.148;2022-11-20T13:31:42;97593.47;;;8.99;76.88
28312;BME280;15572;48.810;9.148;2022-11-20T13:36:49;97592.91;;;8.69;76.30
28312;BME280;15572;48.810;9.148;2022-11-20T13:41:54;97592.28;;;8.39;77.09
28312;BME280;15572;48.810;9.148;2022-11-20T13:46:52;97574.09;;;8.20;77.25
28312;BME280;15572;48.810;9.148;2022-11-20T13:51:50;97586.53;;;8.21;78.67
28312;BME280;15572;48.810;9.148;2022-11-20T13:56:54;97586.31;;;8.16;80.13
28312;BME280;15572;48.810;9.148;2022-11-20T14:01:56;97592.97;;;8.20;80.53
28312;BME280;15572;48.810;9.148;2022-11-20T14:06:52;97600.50;;;8.03;84.21
28312;BME280;15572;48.810;9.148;2022-11-20T14:11:49;97590.97;;;7.80;87.83
28312;BME280;15572;48.810;9.148;2022-11-20T14:16:46;97594.47;;;7.59;91.88
28312;BME280;15572;48.810;9.148;2022-11-20T14:21:44;97589.06;;;7.52;94.67
28312;BME280;15572;48.810;9.148;2022-11-20T14:26:42;97586.38;;;7.38;96.51
28312;BME280;15572;48.810;9.148;2022-11-20T14:31:39;97586.78;;;7.35;95.52
28312;BME280;15572;48.810;9.148;2022-11-20T14:36:37;97589.66;;;7.33;96.38
28312;BME280;15572;48.810;9.148;2022-11-20T14:41:35;97583.66;;;7.31;97.97
28312;BME280;15572;48.810;9.148;2022-11-20T14:46:33;97578.81;;;7.27;98.98
28312;BME280;15572;48.810;9.148;2022-11-20T14:51:31;97572.97;;;7.23;100.00
28312;BME280;15572;48.810;9.148;2022-11-20T14:56:29;97557.97;;;7.14;100.00
28312;BME280;15572;48.810;9.148;2022-11-20T15:01:30;97544.44;;;7.07;100.00
28312;BME280;15572;48.810;9.148;2022-11-20T15:06:27;97543.50;;;7.00;100.00
28312;BME280;15572;48.810;9.148;2022-11-20T15:11:29;97532.31;;;6.97;100.00
28312;BME280;15572;48.810;9.148;2022-11-20T15:16:28;97531.59;;;6.88;100.00
28312;BME280;15572;48.810;9.148;2022-11-20T15:21:24;97527.31;;;6.79;100.00
28312;BME280;15572;48.810;9.148;2022-11-20T15:26:24;97522.91;;;6.71;100.00
28312;BME280;15572;48.810;9.148;2022-11-20T15:31:22;97527.00;;;6.67;100.00
28312;BME280;15572;48.810;9.148;2022-11-20T15:36:21;97532.66;;;6.58;100.00
28312;BME280;15572;48.810;9.148;2022-11-20T15:41:17;97517.25;;;6.52;100.00
28312;BME280;15572;48.810;9.148;2022-11-20T15:46:16;97517.81;;;6.47;100.00
28312;BME280;15572;48.810;9.148;2022-11-20T15:51:23;97514.69;;;6.44;100.00
28312;BME280;15572;48.810;9.148;2022-11-20T15:56:21;97514.22;;;6.40;100.00
28312;BME280;15572;48.810;9.148;2022-11-20T16:01:19;97510.50;;;6.41;100.00
28312;BME280;15572;48.810;9.148;2022-11-20T16:06:16;97511.28;;;6.35;100.00
28312;BME280;15572;48.810;9.148;2022-11-20T16:11:16;97507.91;;;6.33;100.00
28312;BME280;15572;48.810;9.148;2022-11-20T16:16:21;97500.59;;;6.27;100.00
28312;BME280;15572;48.810;9.148;2022-11-20T16:21:18;97502.66;;;6.25;100.00
28312;BME280;15572;48.810;9.148;2022-11-20T16:26:16;97500.59;;;6.27;100.00
28312;BME280;15572;48.810;9.148;2022-11-20T16:31:16;97490.50;;;6.29;100.00
28312;BME280;15572;48.810;9.148;2022-11-20T16:36:14;97496.91;;;6.28;100.00
28312;BME280;15572;48.810;9.148;2022-11-20T16:41:11;97489.66;;;6.28;100.00
28312;BME280;15572;48.810;9.148;2022-11-20T16:46:10;97488.84;;;6.28;100.00
28312;BME280;15572;48.810;9.148;2022-11-20T16:51:08;97489.00;;;6.26;100.00
28312;BME280;15572;48.810;9.148;2022-11-20T16:56:09;97483.63;;;6.26;100.00
28312;BME280;15572;48.810;9.148;2022-11-20T17:01:06;97475.28;;;6.21;100.00
28312;BME280;15572;48.810;9.148;2022-11-20T17:06:14;97470.94;;;6.20;100.00
28312;BME280;15572;48.810;9.148;2022-11-20T17:11:12;97468.72;;;6.24;100.00
28312;BME280;15572;48.810;9.148;2022-11-20T17:16:11;97469.34;;;6.26;100.00
28312;BME280;15572;48.810;9.148;2022-11-20T17:21:07;97460.09;;;6.28;100.00
28312;BME280;15572;48.810;9.148;2022-11-20T17:26:08;97463.06;;;6.33;100.00
28312;BME280;15572;48.810;9.148;2022-11-20T17:31:06;97451.47;;;6.33;100.00
28312;BME280;15572;48.810;9.148;2022-11-20T17:36:03;97445.34;;;6.39;100.00
28312;BME280;15572;48.810;9.148;2022-11-20T17:41:01;97450.53;;;6.41;100.00
28312;BME280;15572;48.810;9.148;2022-11-20T17:46:00;97451.81;;;6.45;100.00
28312;BME280;15572;48.810;9.148;2022-11-20T17:50:58;97439.22;;;6.45;100.00
28312;BME280;15572;48.810;9.148;2022-11-20T17:55:55;97440.50;;;6.49;100.00
28312;BME280;15572;48.810;9.148;2022-11-20T18:01:10;97429.56;;;6.51;100.00
28312;BME280;15572;48.810;9.148;2022-11-20T18:06:08;97420.28;;;6.53;100.00
28312;BME280;15572;48.810;9.148;2022-11-20T18:11:09;97411.56;;;6.51;100.00
28312;BME280;15572;48.810;9.148;2022-11-20T18:16:06;97415.91;;;6.52;100.00
28312;BME280;15572;48.810;9.148;2022-11-20T18:21:04;97404.78;;;6.55;100.00
28312;BME280;15572;48.810;9.148;2022-11-20T18:26:01;97394.28;;;6.60;100.00
28312;BME280;15572;48.810;9.148;2022-11-20T18:30:57;97387.91;;;6.61;100.00
28312;BME280;15572;48.810;9.148;2022-11-20T18:35:54;97382.69;;;6.60;100.00
28312;BME280;15572;48.810;9.148;2022-11-20T18:40:51;97381.22;;;6.57;100.00
28312;BME280;15572;48.810;9.148;2022-11-20T18:45:48;97380.00;;;6.60;100.00
28312;BME280;15572;48.810;9.148;2022-11-20T18:50:46;97387.81;;;6.55;100.00
28312;BME280;15572;48.810;9.148;2022-11-20T18:55:43;97385.50;;;6.52;100.00
28312;BME280;15572;48.810;9.148;2022-11-20T19:00:41;97380.09;;;6.30;100.00
28312;BME280;15572;48.810;9.148;2022-11-20T19:05:37;97364.75;;;6.10;100.00
28312;BME280;15572;48.810;9.148;2022-11-20T19:10:34;97380.34;;;6.00;100.00
28312;BME280;15572;48.810;9.148;2022-11-20T19:15:31;97368.13;;;5.97;100.00
28312;BME280;15572;48.810;9.148;2022-11-20T19:20:31;97366.22;;;5.83;100.00
28312;BME280;15572;48.810;9.148;2022-11-20T19:25:29;97368.19;;;5.74;100.00
28312;BME280;15572;48.810;9.148;2022-11-20T19:30:25;97354.50;;;5.69;100.00
28312;BME280;15572;48.810;9.148;2022-11-20T19:35:23;97346.16;;;5.64;100.00
28312;BME280;15572;48.810;9.148;2022-11-20T19:40:32;97346.63;;;5.68;100.00
28312;BME280;15572;48.810;9.148;2022-11-20T19:45:29;97345.31;;;5.64;100.00
28312;BME280;15572;48.810;9.148;2022-11-20T19:50:26;97338.19;;;5.56;100.00
28312;BME280;15572;48.810;9.148;2022-11-20T19:55:24;97338.00;;;5.58;100.00
28312;BME280;15572;48.810;9.148;2022-11-20T20:00:20;97341.63;;;5.50;100.00
28312;BME280;15572;48.810;9.148;2022-11-20T20:05:17;97338.19;;;5.41;100.00
28312;BME280;15572;48.810;9.148;2022-11-20T20:10:14;97334.94;;;5.46;100.00
28312;BME280;15572;48.810;9.148;2022-11-20T20:15:13;97329.69;;;5.53;100.00
28312;BME280;15572;48.810;9.148;2022-11-20T20:20:10;97337.00;;;5.44;100.00
28312;BME280;15572;48.810;9.148;2022-11-20T20:25:07;97334.13;;;5.45;100.00
28312;BME280;15572;48.810;9.148;2022-11-20T20:30:04;97332.19;;;5.39;100.00
28312;BME280;15572;48.810;9.148;2022-11-20T20:35:03;97332.72;;;5.35;100.00
28312;BME280;15572;48.810;9.148;2022-11-20T20:39:59;97339.47;;;5.31;100.00
28312;BME280;15572;48.810;9.148;2022-11-20T20:44:56;97338.19;;;5.27;100.00
28312;BME280;15572;48.810;9.148;2022-11-20T20:50:04;97336.69;;;5.24;100.00
28312;BME280;15572;48.810;9.148;2022-11-20T20:55:01;97340.69;;;5.28;100.00
28312;BME280;15572;48.810;9.148;2022-11-20T20:59:58;97347.63;;;5.23;100.00
28312;BME280;15572;48.810;9.148;2022-11-20T21:04:54;97346.97;;;5.21;100.00
28312;BME280;15572;48.810;9.148;2022-11-20T21:09:52;97349.66;;;5.21;100.00
28312;BME280;15572;48.810;9.148;2022-11-20T21:14:49;97352.91;;;5.31;100.00
28312;BME280;15572;48.810;9.148;2022-11-20T21:19:45;97357.09;;;5.33;100.00
28312;BME280;15572;48.810;9.148;2022-11-20T21:24:42;97359.72;;;5.19;100.00
28312;BME280;15572;48.810;9.148;2022-11-20T21:29:40;97363.69;;;5.08;100.00
28312;BME280;15572;48.810;9.148;2022-11-20T21:34:36;97351.09;;;5.08;100.00
28312;BME280;15572;48.810;9.148;2022-11-20T21:39:33;97354.88;;;4.99;100.00
28312;BME280;15572;48.810;9.148;2022-11-20T21:44:29;97351.81;;;5.02;100.00
28312;BME280;15572;48.810;9.148;2022-11-20T21:49:27;97358.53;;;5.06;100.00
28312;BME280;15572;48.810;9.148;2022-11-20T21:54:23;97358.31;;;5.08;100.00
28312;BME280;15572;48.810;9.148;2022-11-20T21:59:20;97358.41;;;5.00;100.00
28312;BME280;15572;48.810;9.148;2022-11-20T22:04:17;97366.63;;;4.98;100.00
28312;BME280;15572;48.810;9.148;2022-11-20T22:09:15;97369.59;;;5.03;100.00
28312;BME280;15572;48.810;9.148;2022-11-20T22:14:12;97360.25;;;4.99;100.00
28312;BME280;15572;48.810;9.148;2022-11-20T22:19:18;97372.38;;;4.95;100.00
28312;BME280;15572;48.810;9.148;2022-11-20T22:24:18;97367.19;;;4.94;100.00
28312;BME280;15572;48.810;9.148;2022-11-20T22:29:16;97368.47;;;4.98;100.00
28312;BME280;15572;48.810;9.148;2022-11-20T22:34:13;97384.50;;;5.06;100.00
28312;BME280;15572;48.810;9.148;2022-11-20T22:39:10;97369.72;;;5.10;100.00
28312;BME280;15572;48.810;9.148;2022-11-20T22:44:12;97364.44;;;5.02;100.00
28312;BME280;15572;48.810;9.148;2022-11-20T22:49:09;97367.41;;;5.07;100.00
28312;BME280;15572;48.810;9.148;2022-11-20T22:54:06;97371.84;;;5.15;100.00
28312;BME280;15572;48.810;9.148;2022-11-20T22:59:04;97375.91;;;5.11;100.00
28312;BME280;15572;48.810;9.148;2022-11-20T23:04:03;97369.72;;;5.10;100.00
28312;BME280;15572;48.810;9.148;2022-11-20T23:09:00;97360.16;;;5.07;100.00
28312;BME280;15572;48.810;9.148;2022-11-20T23:13:58;97361.22;;;5.06;100.00
28312;BME280;15572;48.810;9.148;2022-11-20T23:18:56;97355.19;;;5.19;100.00
28312;BME280;15572;48.810;9.148;2022-11-20T23:23:56;97349.66;;;5.21;100.00
28312;BME280;15572;48.810;9.148;2022-11-20T23:28:54;97361.41;;;5.20;100.00
28312;BME280;15572;48.810;9.148;2022-11-20T23:33:52;97357.47;;;5.07;100.00
28312;BME280;15572;48.810;9.148;2022-11-20T23:38:48;97367.41;;;5.07;100.00
28312;BME280;15572;48.810;9.148;2022-11-20T23:43:46;97367.03;;;5.10;100.00
28312;BME280;15572;48.810;9.148;2022-11-20T23:48:43;97369.44;;;5.20;100.00
28312;BME280;15572;48.810;9.148;2022-11-20T23:53:40;97375.09;;;5.25;100.00
28312;BME280;15572;48.810;9.148;2022-11-20T23:58:37;97376.50;;;5.21;100.00
